sensor_id;sensor_type;location;lat;lon;timestamp;P1;durP1;ratioP1;P2;durP2;ratioP2
28958;SDS011;16066;0.000;0.000;2022-10-31T00:01:21;9.70;;;6.30;;
28958;SDS011;16066;0.000;0.000;2022-10-31T00:03:55;13.77;;;7.57;;
28958;SDS011;16066;0.000;0.000;2022-10-31T00:06:21;16.03;;;6.40;;
28958;SDS011;16066;0.000;0.000;2022-10-31T00:08:47;13.57;;;6.20;;
28958;SDS011;16066;0.000;0.000;2022-10-31T00:11:17;11.50;;;6.33;;
28958;SDS011;16066;0.000;0.000;2022-10-31T00:13:43;12.53;;;6.60;;
28958;SDS011;16066;0.000;0.000;2022-10-31T00:16:19;9.60;;;6.40;;
28958;SDS011;16066;0.000;0.000;2022-10-31T00:18:52;11.30;;;5.90;;
28958;SDS011;16066;0.000;0.000;2022-10-31T00:21:23;11.20;;;6.30;;
28958;SDS011;16066;0.000;0.000;2022-10-31T00:23:49;7.33;;;5.57;;
28958;SDS011;16066;0.000;0.000;2022-10-31T00:26:15;12.00;;;6.00;;
28958;SDS011;16066;0.000;0.000;2022-10-31T00:28:42;12.87;;;5.97;;
28958;SDS011;16066;0.000;0.000;2022-10-31T00:31:08;8.10;;;5.37;;
28958;SDS011;16066;0.000;0.000;2022-10-31T00:33:35;11.80;;;6.10;;
28958;SDS011;16066;0.000;0.000;2022-10-31T00:36:02;10.93;;;6.17;;
28958;SDS011;16066;0.000;0.000;2022-10-31T00:38:28;10.57;;;6.57;;
28958;SDS011;16066;0.000;0.000;2022-10-31T00:40:54;12.10;;;5.73;;
28958;SDS011;16066;0.000;0.000;2022-10-31T00:43:19;10.20;;;6.60;;
28958;SDS011;16066;0.000;0.000;2022-10-31T00:45:45;11.10;;;6.47;;
28958;SDS011;16066;0.000;0.000;2022-10-31T00:48:11;13.47;;;5.70;;
28958;SDS011;16066;0.000;0.000;2022-10-31T00:50:37;11.73;;;5.60;;
28958;SDS011;16066;0.000;0.000;2022-10-31T00:53:03;10.07;;;5.50;;
28958;SDS011;16066;0.000;0.000;2022-10-31T00:55:29;16.77;;;5.90;;
28958;SDS011;16066;0.000;0.000;2022-10-31T00:57:54;8.37;;;5.13;;
28958;SDS011;16066;0.000;0.000;2022-10-31T01:00:20;12.97;;;6.13;;
28958;SDS011;16066;0.000;0.000;2022-10-31T01:02:46;15.90;;;5.50;;
28958;SDS011;16066;0.000;0.000;2022-10-31T01:05:12;16.70;;;7.00;;
28958;SDS011;16066;0.000;0.000;2022-10-31T01:07:38;9.13;;;5.40;;
28958;SDS011;16066;0.000;0.000;2022-10-31T01:10:05;10.93;;;6.53;;
28958;SDS011;16066;0.000;0.000;2022-10-31T01:12:42;8.83;;;5.53;;
28958;SDS011;16066;0.000;0.000;2022-10-31T01:15:09;14.30;;;6.40;;
28958;SDS011;16066;0.000;0.000;2022-10-31T01:17:36;11.63;;;5.80;;
28958;SDS011;16066;0.000;0.000;2022-10-31T01:20:01;9.37;;;5.93;;
28958;SDS011;16066;0.000;0.000;2022-10-31T01:22:29;9.07;;;6.00;;
28958;SDS011;16066;0.000;0.000;2022-10-31T01:24:54;11.77;;;5.53;;
28958;SDS011;16066;0.000;0.000;2022-10-31T01:27:20;12.90;;;6.60;;
28958;SDS011;16066;0.000;0.000;2022-10-31T01:29:45;12.20;;;6.17;;
28958;SDS011;16066;0.000;0.000;2022-10-31T01:32:11;11.20;;;5.40;;
28958;SDS011;16066;0.000;0.000;2022-10-31T01:34:36;10.60;;;5.20;;
28958;SDS011;16066;0.000;0.000;2022-10-31T01:37:02;10.73;;;5.20;;
28958;SDS011;16066;0.000;0.000;2022-10-31T01:39:27;14.60;;;7.17;;
28958;SDS011;16066;0.000;0.000;2022-10-31T01:41:53;8.70;;;5.80;;
28958;SDS011;16066;0.000;0.000;2022-10-31T01:46:47;9.03;;;6.00;;
28958;SDS011;16066;0.000;0.000;2022-10-31T01:49:29;10.43;;;5.73;;
28958;SDS011;16066;0.000;0.000;2022-10-31T01:52:09;12.53;;;6.10;;
28958;SDS011;16066;0.000;0.000;2022-10-31T01:54:42;14.70;;;5.63;;
28958;SDS011;16066;0.000;0.000;2022-10-31T01:57:12;9.73;;;6.03;;
28958;SDS011;16066;0.000;0.000;2022-10-31T01:59:40;9.00;;;5.50;;
28958;SDS011;16066;0.000;0.000;2022-10-31T02:02:09;12.30;;;5.70;;
28958;SDS011;16066;0.000;0.000;2022-10-31T02:04:36;7.97;;;5.30;;
28958;SDS011;16066;0.000;0.000;2022-10-31T02:07:04;9.03;;;5.10;;
28958;SDS011;16066;0.000;0.000;2022-10-31T02:09:37;10.40;;;5.03;;
28958;SDS011;16066;0.000;0.000;2022-10-31T02:12:02;13.87;;;5.90;;
28958;SDS011;16066;0.000;0.000;2022-10-31T02:14:29;12.50;;;5.80;;
28958;SDS011;16066;0.000;0.000;2022-10-31T02:16:56;11.60;;;6.37;;
28958;SDS011;16066;0.000;0.000;2022-10-31T02:19:28;10.30;;;5.47;;
28958;SDS011;16066;0.000;0.000;2022-10-31T02:22:02;8.33;;;5.00;;
28958;SDS011;16066;0.000;0.000;2022-10-31T02:30:00;9.90;;;5.27;;
28958;SDS011;16066;0.000;0.000;2022-10-31T02:32:43;6.60;;;5.07;;
28958;SDS011;16066;0.000;0.000;2022-10-31T02:35:21;10.10;;;4.30;;
28958;SDS011;16066;0.000;0.000;2022-10-31T02:40:56;12.57;;;5.30;;
28958;SDS011;16066;0.000;0.000;2022-10-31T02:43:35;11.77;;;7.07;;
28958;SDS011;16066;0.000;0.000;2022-10-31T02:46:19;7.07;;;4.90;;
28958;SDS011;16066;0.000;0.000;2022-10-31T02:48:48;8.03;;;4.87;;
28958;SDS011;16066;0.000;0.000;2022-10-31T02:51:19;11.40;;;4.93;;
28958;SDS011;16066;0.000;0.000;2022-10-31T02:53:45;7.10;;;5.07;;
28958;SDS011;16066;0.000;0.000;2022-10-31T02:56:13;10.27;;;5.13;;
28958;SDS011;16066;0.000;0.000;2022-10-31T02:58:43;11.17;;;4.77;;
28958;SDS011;16066;0.000;0.000;2022-10-31T03:01:22;6.80;;;4.73;;
28958;SDS011;16066;0.000;0.000;2022-10-31T03:04:16;8.93;;;5.30;;
28958;SDS011;16066;0.000;0.000;2022-10-31T03:07:08;11.50;;;5.73;;
28958;SDS011;16066;0.000;0.000;2022-10-31T03:10:04;9.67;;;5.20;;
28958;SDS011;16066;0.000;0.000;2022-10-31T03:15:31;10.40;;;6.00;;
28958;SDS011;16066;0.000;0.000;2022-10-31T03:18:00;12.40;;;5.23;;
28958;SDS011;16066;0.000;0.000;2022-10-31T03:20:36;11.93;;;5.97;;
28958;SDS011;16066;0.000;0.000;2022-10-31T03:23:15;10.60;;;4.90;;
28958;SDS011;16066;0.000;0.000;2022-10-31T03:25:43;9.80;;;4.87;;
28958;SDS011;16066;0.000;0.000;2022-10-31T03:28:12;9.57;;;5.03;;
28958;SDS011;16066;0.000;0.000;2022-10-31T03:30:40;8.97;;;4.50;;
28958;SDS011;16066;0.000;0.000;2022-10-31T03:33:09;9.83;;;5.50;;
28958;SDS011;16066;0.000;0.000;2022-10-31T03:35:39;7.77;;;4.80;;
28958;SDS011;16066;0.000;0.000;2022-10-31T03:38:09;11.90;;;5.40;;
28958;SDS011;16066;0.000;0.000;2022-10-31T03:40:36;10.00;;;4.80;;
28958;SDS011;16066;0.000;0.000;2022-10-31T03:43:06;9.23;;;5.17;;
28958;SDS011;16066;0.000;0.000;2022-10-31T03:45:36;11.23;;;5.37;;
28958;SDS011;16066;0.000;0.000;2022-10-31T03:48:06;12.50;;;5.40;;
28958;SDS011;16066;0.000;0.000;2022-10-31T03:50:38;7.47;;;4.57;;
28958;SDS011;16066;0.000;0.000;2022-10-31T03:53:22;16.63;;;5.60;;
28958;SDS011;16066;0.000;0.000;2022-10-31T03:56:09;8.63;;;4.90;;
28958;SDS011;16066;0.000;0.000;2022-10-31T03:58:45;15.40;;;5.23;;
28958;SDS011;16066;0.000;0.000;2022-10-31T04:01:18;9.60;;;4.93;;
28958;SDS011;16066;0.000;0.000;2022-10-31T04:03:46;14.90;;;5.10;;
28958;SDS011;16066;0.000;0.000;2022-10-31T04:06:12;10.17;;;5.17;;
28958;SDS011;16066;0.000;0.000;2022-10-31T04:08:43;11.87;;;4.93;;
28958;SDS011;16066;0.000;0.000;2022-10-31T04:11:16;12.47;;;5.77;;
28958;SDS011;16066;0.000;0.000;2022-10-31T04:13:45;12.70;;;5.40;;
28958;SDS011;16066;0.000;0.000;2022-10-31T04:16:12;10.30;;;5.00;;
28958;SDS011;16066;0.000;0.000;2022-10-31T04:18:39;11.17;;;5.03;;
28958;SDS011;16066;0.000;0.000;2022-10-31T04:21:06;7.20;;;5.13;;
28958;SDS011;16066;0.000;0.000;2022-10-31T04:23:33;6.97;;;4.90;;
28958;SDS011;16066;0.000;0.000;2022-10-31T04:25:59;10.00;;;5.03;;
28958;SDS011;16066;0.000;0.000;2022-10-31T04:28:25;12.37;;;4.90;;
28958;SDS011;16066;0.000;0.000;2022-10-31T04:30:50;9.70;;;5.03;;
28958;SDS011;16066;0.000;0.000;2022-10-31T04:33:17;12.73;;;5.30;;
28958;SDS011;16066;0.000;0.000;2022-10-31T04:35:42;9.40;;;4.90;;
28958;SDS011;16066;0.000;0.000;2022-10-31T04:38:08;6.90;;;4.47;;
28958;SDS011;16066;0.000;0.000;2022-10-31T04:40:33;9.17;;;4.97;;
28958;SDS011;16066;0.000;0.000;2022-10-31T04:42:59;11.83;;;6.10;;
28958;SDS011;16066;0.000;0.000;2022-10-31T04:45:24;8.50;;;4.70;;
28958;SDS011;16066;0.000;0.000;2022-10-31T04:47:50;7.43;;;4.87;;
28958;SDS011;16066;0.000;0.000;2022-10-31T04:50:15;9.47;;;5.93;;
28958;SDS011;16066;0.000;0.000;2022-10-31T04:52:41;10.90;;;5.73;;
28958;SDS011;16066;0.000;0.000;2022-10-31T04:55:09;9.50;;;4.40;;
28958;SDS011;16066;0.000;0.000;2022-10-31T04:57:44;7.83;;;4.87;;
28958;SDS011;16066;0.000;0.000;2022-10-31T05:00:12;11.60;;;5.10;;
28958;SDS011;16066;0.000;0.000;2022-10-31T05:02:43;12.73;;;5.53;;
28958;SDS011;16066;0.000;0.000;2022-10-31T05:05:09;9.57;;;4.93;;
28958;SDS011;16066;0.000;0.000;2022-10-31T05:07:38;11.07;;;5.10;;
28958;SDS011;16066;0.000;0.000;2022-10-31T05:10:05;12.73;;;5.70;;
28958;SDS011;16066;0.000;0.000;2022-10-31T05:12:31;14.80;;;5.90;;
28958;SDS011;16066;0.000;0.000;2022-10-31T05:14:57;15.73;;;5.20;;
28958;SDS011;16066;0.000;0.000;2022-10-31T05:17:22;10.80;;;5.53;;
28958;SDS011;16066;0.000;0.000;2022-10-31T05:19:48;16.47;;;5.30;;
28958;SDS011;16066;0.000;0.000;2022-10-31T05:22:13;7.67;;;5.30;;
28958;SDS011;16066;0.000;0.000;2022-10-31T05:24:39;8.90;;;5.77;;
28958;SDS011;16066;0.000;0.000;2022-10-31T05:27:04;8.10;;;5.30;;
28958;SDS011;16066;0.000;0.000;2022-10-31T05:29:30;8.30;;;5.00;;
28958;SDS011;16066;0.000;0.000;2022-10-31T05:31:58;8.40;;;6.23;;
28958;SDS011;16066;0.000;0.000;2022-10-31T05:34:24;8.77;;;5.60;;
28958;SDS011;16066;0.000;0.000;2022-10-31T05:36:49;8.67;;;5.53;;
28958;SDS011;16066;0.000;0.000;2022-10-31T05:39:15;9.97;;;5.40;;
28958;SDS011;16066;0.000;0.000;2022-10-31T05:41:40;11.30;;;5.77;;
28958;SDS011;16066;0.000;0.000;2022-10-31T05:44:06;8.33;;;4.80;;
28958;SDS011;16066;0.000;0.000;2022-10-31T05:46:31;7.60;;;5.30;;
28958;SDS011;16066;0.000;0.000;2022-10-31T05:48:57;14.10;;;5.60;;
28958;SDS011;16066;0.000;0.000;2022-10-31T05:51:22;10.37;;;5.40;;
28958;SDS011;16066;0.000;0.000;2022-10-31T05:53:48;8.70;;;5.33;;
28958;SDS011;16066;0.000;0.000;2022-10-31T05:56:13;11.90;;;5.80;;
28958;SDS011;16066;0.000;0.000;2022-10-31T05:58:39;11.03;;;5.37;;
28958;SDS011;16066;0.000;0.000;2022-10-31T06:01:04;8.40;;;5.70;;
28958;SDS011;16066;0.000;0.000;2022-10-31T06:03:30;9.80;;;5.73;;
28958;SDS011;16066;0.000;0.000;2022-10-31T06:05:56;8.80;;;5.87;;
28958;SDS011;16066;0.000;0.000;2022-10-31T06:08:21;14.33;;;6.00;;
28958;SDS011;16066;0.000;0.000;2022-10-31T06:10:47;7.87;;;5.10;;
28958;SDS011;16066;0.000;0.000;2022-10-31T06:13:12;13.10;;;5.80;;
28958;SDS011;16066;0.000;0.000;2022-10-31T06:15:38;10.17;;;5.80;;
28958;SDS011;16066;0.000;0.000;2022-10-31T06:18:05;10.20;;;5.73;;
28958;SDS011;16066;0.000;0.000;2022-10-31T06:20:31;9.37;;;5.30;;
28958;SDS011;16066;0.000;0.000;2022-10-31T06:22:57;9.43;;;5.70;;
28958;SDS011;16066;0.000;0.000;2022-10-31T06:25:23;10.37;;;6.10;;
28958;SDS011;16066;0.000;0.000;2022-10-31T06:27:48;8.07;;;5.17;;
28958;SDS011;16066;0.000;0.000;2022-10-31T06:30:14;14.73;;;6.27;;
28958;SDS011;16066;0.000;0.000;2022-10-31T06:32:40;10.70;;;5.90;;
28958;SDS011;16066;0.000;0.000;2022-10-31T06:35:05;11.17;;;5.57;;
28958;SDS011;16066;0.000;0.000;2022-10-31T06:37:31;11.37;;;5.93;;
28958;SDS011;16066;0.000;0.000;2022-10-31T06:39:56;9.93;;;6.37;;
28958;SDS011;16066;0.000;0.000;2022-10-31T06:42:22;9.13;;;5.40;;
28958;SDS011;16066;0.000;0.000;2022-10-31T06:44:47;11.47;;;6.70;;
28958;SDS011;16066;0.000;0.000;2022-10-31T06:47:13;12.50;;;5.60;;
28958;SDS011;16066;0.000;0.000;2022-10-31T06:49:38;9.07;;;5.00;;
28958;SDS011;16066;0.000;0.000;2022-10-31T06:52:04;9.17;;;5.67;;
28958;SDS011;16066;0.000;0.000;2022-10-31T06:54:30;10.20;;;5.80;;
28958;SDS011;16066;0.000;0.000;2022-10-31T06:56:55;12.40;;;5.27;;
28958;SDS011;16066;0.000;0.000;2022-10-31T06:59:21;10.43;;;6.30;;
28958;SDS011;16066;0.000;0.000;2022-10-31T07:01:46;11.17;;;6.03;;
28958;SDS011;16066;0.000;0.000;2022-10-31T07:04:12;11.13;;;6.20;;
28958;SDS011;16066;0.000;0.000;2022-10-31T07:06:38;13.93;;;6.73;;
28958;SDS011;16066;0.000;0.000;2022-10-31T07:09:03;12.77;;;6.27;;
28958;SDS011;16066;0.000;0.000;2022-10-31T07:11:29;12.70;;;6.03;;
28958;SDS011;16066;0.000;0.000;2022-10-31T07:13:54;8.60;;;5.20;;
28958;SDS011;16066;0.000;0.000;2022-10-31T07:16:20;12.20;;;6.40;;
28958;SDS011;16066;0.000;0.000;2022-10-31T07:18:46;13.13;;;6.50;;
28958;SDS011;16066;0.000;0.000;2022-10-31T07:21:11;13.93;;;6.23;;
28958;SDS011;16066;0.000;0.000;2022-10-31T07:23:37;9.50;;;6.57;;
28958;SDS011;16066;0.000;0.000;2022-10-31T07:26:03;8.50;;;5.90;;
28958;SDS011;16066;0.000;0.000;2022-10-31T07:28:28;6.17;;;4.03;;
28958;SDS011;16066;0.000;0.000;2022-10-31T07:30:55;14.97;;;6.83;;
28958;SDS011;16066;0.000;0.000;2022-10-31T07:33:22;14.43;;;6.70;;
28958;SDS011;16066;0.000;0.000;2022-10-31T07:35:48;12.53;;;6.67;;
28958;SDS011;16066;0.000;0.000;2022-10-31T07:38:14;11.90;;;6.63;;
28958;SDS011;16066;0.000;0.000;2022-10-31T07:40:40;13.77;;;7.07;;
28958;SDS011;16066;0.000;0.000;2022-10-31T07:43:06;9.67;;;6.43;;
28958;SDS011;16066;0.000;0.000;2022-10-31T07:45:31;16.20;;;7.00;;
28958;SDS011;16066;0.000;0.000;2022-10-31T07:47:57;11.70;;;6.97;;
28958;SDS011;16066;0.000;0.000;2022-10-31T07:50:23;11.53;;;6.00;;
28958;SDS011;16066;0.000;0.000;2022-10-31T07:52:58;11.43;;;6.97;;
28958;SDS011;16066;0.000;0.000;2022-10-31T07:55:28;12.27;;;6.40;;
28958;SDS011;16066;0.000;0.000;2022-10-31T07:58:28;10.40;;;6.17;;
28958;SDS011;16066;0.000;0.000;2022-10-31T08:00:47;13.33;;;7.27;;
28958;SDS011;16066;0.000;0.000;2022-10-31T08:03:13;16.23;;;7.70;;
28958;SDS011;16066;0.000;0.000;2022-10-31T08:05:41;17.43;;;7.40;;
28958;SDS011;16066;0.000;0.000;2022-10-31T08:08:07;17.57;;;6.97;;
28958;SDS011;16066;0.000;0.000;2022-10-31T08:10:33;13.33;;;7.30;;
28958;SDS011;16066;0.000;0.000;2022-10-31T08:13:00;14.40;;;7.10;;
28958;SDS011;16066;0.000;0.000;2022-10-31T08:15:36;14.57;;;7.23;;
28958;SDS011;16066;0.000;0.000;2022-10-31T08:18:05;13.50;;;7.30;;
28958;SDS011;16066;0.000;0.000;2022-10-31T08:20:31;12.33;;;6.80;;
28958;SDS011;16066;0.000;0.000;2022-10-31T08:22:57;13.50;;;8.03;;
28958;SDS011;16066;0.000;0.000;2022-10-31T08:25:27;12.33;;;7.43;;
28958;SDS011;16066;0.000;0.000;2022-10-31T08:27:54;11.57;;;7.67;;
28958;SDS011;16066;0.000;0.000;2022-10-31T08:30:21;13.10;;;8.60;;
28958;SDS011;16066;0.000;0.000;2022-10-31T08:32:56;14.57;;;7.47;;
28958;SDS011;16066;0.000;0.000;2022-10-31T08:35:29;12.17;;;6.57;;
28958;SDS011;16066;0.000;0.000;2022-10-31T08:37:55;18.80;;;7.90;;
28958;SDS011;16066;0.000;0.000;2022-10-31T08:40:22;13.43;;;6.50;;
28958;SDS011;16066;0.000;0.000;2022-10-31T08:42:55;11.40;;;7.13;;
28958;SDS011;16066;0.000;0.000;2022-10-31T08:45:31;16.60;;;8.27;;
28958;SDS011;16066;0.000;0.000;2022-10-31T08:48:02;15.37;;;7.87;;
28958;SDS011;16066;0.000;0.000;2022-10-31T08:50:29;12.33;;;6.40;;
28958;SDS011;16066;0.000;0.000;2022-10-31T08:53:03;14.53;;;6.00;;
28958;SDS011;16066;0.000;0.000;2022-10-31T08:55:34;7.50;;;5.27;;
28958;SDS011;16066;0.000;0.000;2022-10-31T08:58:00;9.20;;;6.23;;
28958;SDS011;16066;0.000;0.000;2022-10-31T09:00:27;12.23;;;5.53;;
28958;SDS011;16066;0.000;0.000;2022-10-31T09:03:00;8.00;;;5.50;;
28958;SDS011;16066;0.000;0.000;2022-10-31T09:05:28;9.20;;;5.17;;
28958;SDS011;16066;0.000;0.000;2022-10-31T09:07:57;12.67;;;6.00;;
28958;SDS011;16066;0.000;0.000;2022-10-31T09:10:23;10.37;;;5.80;;
28958;SDS011;16066;0.000;0.000;2022-10-31T09:13:00;8.27;;;5.97;;
28958;SDS011;16066;0.000;0.000;2022-10-31T09:15:29;10.80;;;6.43;;
28958;SDS011;16066;0.000;0.000;2022-10-31T09:17:55;12.13;;;6.57;;
28958;SDS011;16066;0.000;0.000;2022-10-31T09:20:21;19.40;;;7.87;;
28958;SDS011;16066;0.000;0.000;2022-10-31T09:22:47;20.83;;;7.20;;
28958;SDS011;16066;0.000;0.000;2022-10-31T09:25:12;17.23;;;8.50;;
28958;SDS011;16066;0.000;0.000;2022-10-31T09:27:38;9.40;;;6.40;;
28958;SDS011;16066;0.000;0.000;2022-10-31T09:30:04;21.03;;;10.50;;
28958;SDS011;16066;0.000;0.000;2022-10-31T09:32:30;19.50;;;9.97;;
28958;SDS011;16066;0.000;0.000;2022-10-31T09:34:55;25.23;;;11.30;;
28958;SDS011;16066;0.000;0.000;2022-10-31T09:37:21;22.13;;;12.00;;
28958;SDS011;16066;0.000;0.000;2022-10-31T09:39:46;23.70;;;11.93;;
28958;SDS011;16066;0.000;0.000;2022-10-31T09:47:55;24.97;;;11.80;;
28958;SDS011;16066;0.000;0.000;2022-10-31T09:53:22;25.90;;;13.47;;
28958;SDS011;16066;0.000;0.000;2022-10-31T09:55:52;22.43;;;13.30;;
28958;SDS011;16066;0.000;0.000;2022-10-31T09:58:28;21.53;;;12.60;;
28958;SDS011;16066;0.000;0.000;2022-10-31T10:00:56;18.83;;;11.70;;
28958;SDS011;16066;0.000;0.000;2022-10-31T10:06:22;24.70;;;13.70;;
28958;SDS011;16066;0.000;0.000;2022-10-31T10:08:51;18.93;;;12.07;;
28958;SDS011;16066;0.000;0.000;2022-10-31T10:11:32;19.83;;;13.50;;
28958;SDS011;16066;0.000;0.000;2022-10-31T10:17:10;19.40;;;13.50;;
28958;SDS011;16066;0.000;0.000;2022-10-31T10:19:58;17.37;;;11.13;;
28958;SDS011;16066;0.000;0.000;2022-10-31T10:22:36;18.77;;;11.60;;
28958;SDS011;16066;0.000;0.000;2022-10-31T10:25:16;19.07;;;11.83;;
28958;SDS011;16066;0.000;0.000;2022-10-31T10:33:26;14.20;;;11.07;;
28958;SDS011;16066;0.000;0.000;2022-10-31T10:35:59;19.60;;;11.13;;
28958;SDS011;16066;0.000;0.000;2022-10-31T10:39:09;30.17;;;11.43;;
28958;SDS011;16066;0.000;0.000;2022-10-31T10:41:18;16.90;;;9.83;;
28958;SDS011;16066;0.000;0.000;2022-10-31T10:43:45;21.70;;;10.10;;
28958;SDS011;16066;0.000;0.000;2022-10-31T10:49:11;12.93;;;8.50;;
28958;SDS011;16066;0.000;0.000;2022-10-31T10:51:59;15.37;;;9.10;;
28958;SDS011;16066;0.000;0.000;2022-10-31T11:00:14;18.43;;;9.00;;
28958;SDS011;16066;0.000;0.000;2022-10-31T11:02:43;12.00;;;8.70;;
28958;SDS011;16066;0.000;0.000;2022-10-31T11:05:13;14.90;;;9.27;;
28958;SDS011;16066;0.000;0.000;2022-10-31T11:07:55;13.83;;;9.37;;
28958;SDS011;16066;0.000;0.000;2022-10-31T11:10:21;17.13;;;9.23;;
28958;SDS011;16066;0.000;0.000;2022-10-31T11:12:58;14.37;;;8.10;;
28958;SDS011;16066;0.000;0.000;2022-10-31T11:15:50;10.33;;;6.10;;
28958;SDS011;16066;0.000;0.000;2022-10-31T11:18:25;18.97;;;6.30;;
28958;SDS011;16066;0.000;0.000;2022-10-31T11:20:53;10.37;;;5.97;;
28958;SDS011;16066;0.000;0.000;2022-10-31T11:23:21;13.67;;;6.07;;
28958;SDS011;16066;0.000;0.000;2022-10-31T11:25:49;19.80;;;6.13;;
28958;SDS011;16066;0.000;0.000;2022-10-31T11:28:16;9.43;;;5.93;;
28958;SDS011;16066;0.000;0.000;2022-10-31T11:30:43;15.10;;;5.23;;
28958;SDS011;16066;0.000;0.000;2022-10-31T11:33:16;17.50;;;5.60;;
28958;SDS011;16066;0.000;0.000;2022-10-31T11:35:42;11.80;;;5.00;;
28958;SDS011;16066;0.000;0.000;2022-10-31T11:38:12;15.53;;;4.90;;
28958;SDS011;16066;0.000;0.000;2022-10-31T11:43:27;10.50;;;4.57;;
28958;SDS011;16066;0.000;0.000;2022-10-31T11:45:53;13.50;;;4.80;;
28958;SDS011;16066;0.000;0.000;2022-10-31T11:48:20;14.27;;;5.37;;
28958;SDS011;16066;0.000;0.000;2022-10-31T11:50:50;14.23;;;3.93;;
28958;SDS011;16066;0.000;0.000;2022-10-31T11:53:28;11.47;;;4.23;;
28958;SDS011;16066;0.000;0.000;2022-10-31T11:56:14;8.40;;;4.50;;
28958;SDS011;16066;0.000;0.000;2022-10-31T11:58:41;21.97;;;4.70;;
28958;SDS011;16066;0.000;0.000;2022-10-31T12:01:09;9.13;;;4.33;;
28958;SDS011;16066;0.000;0.000;2022-10-31T12:03:54;9.60;;;5.00;;
28958;SDS011;16066;0.000;0.000;2022-10-31T12:06:35;7.10;;;4.40;;
28958;SDS011;16066;0.000;0.000;2022-10-31T12:09:25;11.83;;;4.10;;
28958;SDS011;16066;0.000;0.000;2022-10-31T12:11:57;17.60;;;4.07;;
28958;SDS011;16066;0.000;0.000;2022-10-31T12:14:50;8.97;;;3.90;;
28958;SDS011;16066;0.000;0.000;2022-10-31T12:28:21;11.40;;;3.97;;
28958;SDS011;16066;0.000;0.000;2022-10-31T12:39:24;10.43;;;3.70;;
28958;SDS011;16066;0.000;0.000;2022-10-31T12:48:03;7.47;;;4.00;;
28958;SDS011;16066;0.000;0.000;2022-10-31T12:51:29;5.57;;;3.10;;
28958;SDS011;16066;0.000;0.000;2022-10-31T12:57:04;7.63;;;3.70;;
28958;SDS011;16066;0.000;0.000;2022-10-31T13:00:10;6.47;;;3.57;;
28958;SDS011;16066;0.000;0.000;2022-10-31T13:02:52;9.10;;;3.60;;
28958;SDS011;16066;0.000;0.000;2022-10-31T13:08:00;6.80;;;3.37;;
28958;SDS011;16066;0.000;0.000;2022-10-31T13:11:15;10.77;;;4.30;;
28958;SDS011;16066;0.000;0.000;2022-10-31T13:16:33;6.47;;;3.80;;
28958;SDS011;16066;0.000;0.000;2022-10-31T13:19:03;5.97;;;4.20;;
28958;SDS011;16066;0.000;0.000;2022-10-31T13:21:50;8.23;;;3.87;;
28958;SDS011;16066;0.000;0.000;2022-10-31T13:24:18;7.03;;;3.97;;
28958;SDS011;16066;0.000;0.000;2022-10-31T13:26:52;8.17;;;3.93;;
28958;SDS011;16066;0.000;0.000;2022-10-31T13:29:44;7.67;;;3.40;;
28958;SDS011;16066;0.000;0.000;2022-10-31T13:32:15;13.50;;;4.40;;
28958;SDS011;16066;0.000;0.000;2022-10-31T13:34:48;7.80;;;3.53;;
28958;SDS011;16066;0.000;0.000;2022-10-31T13:40:14;11.17;;;3.57;;
28958;SDS011;16066;0.000;0.000;2022-10-31T13:45:48;7.00;;;4.40;;
28958;SDS011;16066;0.000;0.000;2022-10-31T13:50:54;7.73;;;3.77;;
28958;SDS011;16066;0.000;0.000;2022-10-31T13:53:22;7.90;;;3.70;;
28958;SDS011;16066;0.000;0.000;2022-10-31T13:56:04;7.93;;;3.53;;
28958;SDS011;16066;0.000;0.000;2022-10-31T13:58:33;15.50;;;3.63;;
28958;SDS011;16066;0.000;0.000;2022-10-31T14:03:39;9.07;;;4.13;;
28958;SDS011;16066;0.000;0.000;2022-10-31T14:06:07;12.00;;;7.00;;
28958;SDS011;16066;0.000;0.000;2022-10-31T14:08:35;7.70;;;4.97;;
28958;SDS011;16066;0.000;0.000;2022-10-31T14:11:05;9.90;;;5.00;;
28958;SDS011;16066;0.000;0.000;2022-10-31T14:13:43;16.93;;;5.10;;
28958;SDS011;16066;0.000;0.000;2022-10-31T14:16:24;12.67;;;4.33;;
28958;SDS011;16066;0.000;0.000;2022-10-31T14:21:31;18.90;;;5.70;;
28958;SDS011;16066;0.000;0.000;2022-10-31T14:27:00;18.03;;;4.60;;
28958;SDS011;16066;0.000;0.000;2022-10-31T14:29:44;9.23;;;4.67;;
28958;SDS011;16066;0.000;0.000;2022-10-31T14:34:57;7.20;;;4.80;;
28958;SDS011;16066;0.000;0.000;2022-10-31T14:37:30;15.00;;;4.07;;
28958;SDS011;16066;0.000;0.000;2022-10-31T14:40:16;10.37;;;4.70;;
28958;SDS011;16066;0.000;0.000;2022-10-31T14:50:58;17.03;;;5.23;;
28958;SDS011;16066;0.000;0.000;2022-10-31T14:53:27;13.83;;;4.00;;
28958;SDS011;16066;0.000;0.000;2022-10-31T14:55:57;15.93;;;4.07;;
28958;SDS011;16066;0.000;0.000;2022-10-31T14:58:26;13.90;;;4.57;;
28958;SDS011;16066;0.000;0.000;2022-10-31T15:00:59;16.60;;;5.07;;
28958;SDS011;16066;0.000;0.000;2022-10-31T15:05:54;18.43;;;5.50;;
28958;SDS011;16066;0.000;0.000;2022-10-31T15:08:41;26.67;;;4.90;;
28958;SDS011;16066;0.000;0.000;2022-10-31T15:11:11;20.57;;;5.03;;
28958;SDS011;16066;0.000;0.000;2022-10-31T15:13:41;12.03;;;4.50;;
28958;SDS011;16066;0.000;0.000;2022-10-31T15:16:08;25.37;;;4.60;;
28958;SDS011;16066;0.000;0.000;2022-10-31T15:18:36;12.13;;;4.27;;
28958;SDS011;16066;0.000;0.000;2022-10-31T15:21:11;12.30;;;4.10;;
28958;SDS011;16066;0.000;0.000;2022-10-31T15:23:41;25.93;;;4.60;;
28958;SDS011;16066;0.000;0.000;2022-10-31T15:26:11;13.70;;;4.50;;
28958;SDS011;16066;0.000;0.000;2022-10-31T15:28:42;16.87;;;4.83;;
28958;SDS011;16066;0.000;0.000;2022-10-31T15:31:12;13.40;;;3.87;;
28958;SDS011;16066;0.000;0.000;2022-10-31T15:33:41;5.43;;;4.00;;
28958;SDS011;16066;0.000;0.000;2022-10-31T15:36:16;7.80;;;3.50;;
28958;SDS011;16066;0.000;0.000;2022-10-31T15:38:44;9.17;;;3.67;;
28958;SDS011;16066;0.000;0.000;2022-10-31T15:43:48;14.60;;;3.77;;
28958;SDS011;16066;0.000;0.000;2022-10-31T15:46:14;12.40;;;4.20;;
28958;SDS011;16066;0.000;0.000;2022-10-31T15:48:43;23.07;;;4.27;;
28958;SDS011;16066;0.000;0.000;2022-10-31T15:51:10;9.00;;;3.83;;
28958;SDS011;16066;0.000;0.000;2022-10-31T15:53:37;10.03;;;4.30;;
28958;SDS011;16066;0.000;0.000;2022-10-31T15:56:08;16.73;;;4.33;;
28958;SDS011;16066;0.000;0.000;2022-10-31T15:58:45;13.10;;;4.00;;
28958;SDS011;16066;0.000;0.000;2022-10-31T16:01:23;11.93;;;5.00;;
28958;SDS011;16066;0.000;0.000;2022-10-31T16:04:19;13.27;;;4.00;;
28958;SDS011;16066;0.000;0.000;2022-10-31T16:12:16;14.13;;;4.47;;
28958;SDS011;16066;0.000;0.000;2022-10-31T16:14:42;13.20;;;4.50;;
28958;SDS011;16066;0.000;0.000;2022-10-31T16:17:11;19.80;;;4.53;;
28958;SDS011;16066;0.000;0.000;2022-10-31T16:19:45;9.27;;;3.93;;
28958;SDS011;16066;0.000;0.000;2022-10-31T16:22:27;13.87;;;4.60;;
28958;SDS011;16066;0.000;0.000;2022-10-31T16:27:34;16.13;;;4.60;;
28958;SDS011;16066;0.000;0.000;2022-10-31T16:30:01;13.17;;;7.60;;
28958;SDS011;16066;0.000;0.000;2022-10-31T16:32:55;10.23;;;6.20;;
28958;SDS011;16066;0.000;0.000;2022-10-31T16:35:24;12.50;;;6.30;;
28958;SDS011;16066;0.000;0.000;2022-10-31T16:37:50;11.00;;;5.67;;
28958;SDS011;16066;0.000;0.000;2022-10-31T16:40:16;15.57;;;5.20;;
28958;SDS011;16066;0.000;0.000;2022-10-31T16:42:43;18.30;;;5.43;;
28958;SDS011;16066;0.000;0.000;2022-10-31T16:45:22;10.07;;;4.80;;
28958;SDS011;16066;0.000;0.000;2022-10-31T16:47:50;11.23;;;5.10;;
28958;SDS011;16066;0.000;0.000;2022-10-31T16:50:21;17.70;;;5.70;;
28958;SDS011;16066;0.000;0.000;2022-10-31T16:52:48;10.23;;;4.17;;
28958;SDS011;16066;0.000;0.000;2022-10-31T16:55:14;12.77;;;4.90;;
28958;SDS011;16066;0.000;0.000;2022-10-31T16:57:42;13.33;;;4.60;;
28958;SDS011;16066;0.000;0.000;2022-10-31T17:00:17;11.30;;;5.03;;
28958;SDS011;16066;0.000;0.000;2022-10-31T17:02:50;16.33;;;5.13;;
28958;SDS011;16066;0.000;0.000;2022-10-31T17:05:19;15.00;;;5.30;;
28958;SDS011;16066;0.000;0.000;2022-10-31T17:07:46;11.73;;;6.10;;
28958;SDS011;16066;0.000;0.000;2022-10-31T17:10:12;10.83;;;5.33;;